メインページ
METAR-TAF:

METAR-TAF

空港 :

マリンディ, ケニヤ

緯度: 03-14S, 経度: 040-06E, 海抜: 20m

現時点の気象観測

当レポートは3時間33分前の21:00(UTC)に作成
の風 7kt
気温 28°C
湿度 74%
気圧 1008 hPa
視程10km以上
高度2100ftの雲は散在している

METAR: HKML 222100Z 09007KT 9999 SCT021 28/23 Q1008

時間: 03:33 (00:33 UTC)


TAF: 見つかりません

4,000以上の空港の気象観測と天気予報(METAR報とTAF報)

利用可能な観測所は地図上に黄色い丸と赤い丸で示す。

丸の上にカーソルを重ねると観測所名を参照できる。

次にクリックすると気象観測と天気予報を参照できる。

マップの切り替え:黒色「×」印の緑ボタンをクリックして拡大、「-」印の緑ボタンをクリックして縮小、緑色の三角印をクリックして隣りの地図に切り替え


METAR-TAF: